sensor_id;sensor_type;location;lat;lon;timestamp;P1;durP1;ratioP1;P2;durP2;ratioP2
5890;SDS011;2971;52.420;7.080;2023-05-10T00:00:37;24.27;;;20.67;;
5890;SDS011;2971;52.420;7.080;2023-05-10T00:03:02;25.93;;;21.03;;
5890;SDS011;2971;52.420;7.080;2023-05-10T00:05:29;23.10;;;20.57;;
5890;SDS011;2971;52.420;7.080;2023-05-10T00:07:55;23.63;;;20.57;;
5890;SDS011;2971;52.420;7.080;2023-05-10T00:10:21;22.33;;;19.33;;
5890;SDS011;2971;52.420;7.080;2023-05-10T00:12:46;19.83;;;17.40;;
5890;SDS011;2971;52.420;7.080;2023-05-10T00:15:11;19.50;;;16.87;;
5890;SDS011;2971;52.420;7.080;2023-05-10T00:17:37;20.37;;;17.40;;
5890;SDS011;2971;52.420;7.080;2023-05-10T00:20:02;18.03;;;15.87;;
5890;SDS011;2971;52.420;7.080;2023-05-10T00:22:29;18.73;;;16.83;;
5890;SDS011;2971;52.420;7.080;2023-05-10T00:24:55;19.53;;;17.53;;
5890;SDS011;2971;52.420;7.080;2023-05-10T00:27:21;16.33;;;14.63;;
5890;SDS011;2971;52.420;7.080;2023-05-10T00:29:46;16.20;;;14.47;;
5890;SDS011;2971;52.420;7.080;2023-05-10T00:32:12;15.83;;;13.20;;
5890;SDS011;2971;52.420;7.080;2023-05-10T00:34:39;14.97;;;13.37;;
5890;SDS011;2971;52.420;7.080;2023-05-10T00:37:04;16.17;;;13.10;;
5890;SDS011;2971;52.420;7.080;2023-05-10T00:39:30;15.27;;;13.67;;
5890;SDS011;2971;52.420;7.080;2023-05-10T00:41:56;16.10;;;14.40;;
5890;SDS011;2971;52.420;7.080;2023-05-10T00:44:21;16.90;;;14.57;;
5890;SDS011;2971;52.420;7.080;2023-05-10T00:46:47;15.87;;;14.27;;
5890;SDS011;2971;52.420;7.080;2023-05-10T00:49:13;16.73;;;15.03;;
5890;SDS011;2971;52.420;7.080;2023-05-10T00:51:38;17.23;;;15.60;;
5890;SDS011;2971;52.420;7.080;2023-05-10T00:54:04;16.70;;;14.90;;
5890;SDS011;2971;52.420;7.080;2023-05-10T00:56:30;17.57;;;15.80;;
5890;SDS011;2971;52.420;7.080;2023-05-10T00:58:55;17.53;;;15.83;;
5890;SDS011;2971;52.420;7.080;2023-05-10T01:01:21;18.50;;;16.80;;
5890;SDS011;2971;52.420;7.080;2023-05-10T01:03:47;19.10;;;17.33;;
5890;SDS011;2971;52.420;7.080;2023-05-10T01:06:12;19.00;;;17.30;;
5890;SDS011;2971;52.420;7.080;2023-05-10T01:08:38;18.80;;;17.00;;
5890;SDS011;2971;52.420;7.080;2023-05-10T01:11:04;19.93;;;18.13;;
5890;SDS011;2971;52.420;7.080;2023-05-10T01:16:04;20.13;;;18.23;;
5890;SDS011;2971;52.420;7.080;2023-05-10T01:18:31;19.43;;;17.73;;
5890;SDS011;2971;52.420;7.080;2023-05-10T01:21:23;21.30;;;19.23;;
5890;SDS011;2971;52.420;7.080;2023-05-10T01:26:48;22.60;;;20.30;;
5890;SDS011;2971;52.420;7.080;2023-05-10T01:32:16;24.03;;;21.60;;
5890;SDS011;2971;52.420;7.080;2023-05-10T01:37:36;26.23;;;23.43;;
5890;SDS011;2971;52.420;7.080;2023-05-10T01:40:08;27.00;;;24.20;;
5890;SDS011;2971;52.420;7.080;2023-05-10T01:42:47;27.23;;;24.43;;
5890;SDS011;2971;52.420;7.080;2023-05-10T01:45:36;26.57;;;23.73;;
5890;SDS011;2971;52.420;7.080;2023-05-10T01:48:15;28.73;;;25.63;;
5890;SDS011;2971;52.420;7.080;2023-05-10T01:50:44;28.33;;;25.43;;
5890;SDS011;2971;52.420;7.080;2023-05-10T01:53:11;29.27;;;26.07;;
5890;SDS011;2971;52.420;7.080;2023-05-10T01:55:42;30.97;;;27.57;;
5890;SDS011;2971;52.420;7.080;2023-05-10T01:58:13;29.77;;;26.57;;
5890;SDS011;2971;52.420;7.080;2023-05-10T02:00:42;30.73;;;27.57;;
5890;SDS011;2971;52.420;7.080;2023-05-10T02:03:10;29.87;;;26.37;;
5890;SDS011;2971;52.420;7.080;2023-05-10T02:05:36;32.13;;;26.80;;
5890;SDS011;2971;52.420;7.080;2023-05-10T02:08:03;32.07;;;28.63;;
5890;SDS011;2971;52.420;7.080;2023-05-10T02:10:32;33.20;;;28.77;;
5890;SDS011;2971;52.420;7.080;2023-05-10T02:12:58;30.50;;;26.23;;
5890;SDS011;2971;52.420;7.080;2023-05-10T02:15:24;32.00;;;27.63;;
5890;SDS011;2971;52.420;7.080;2023-05-10T02:17:49;34.77;;;28.67;;
5890;SDS011;2971;52.420;7.080;2023-05-10T02:20:15;36.60;;;29.17;;
5890;SDS011;2971;52.420;7.080;2023-05-10T02:22:42;33.77;;;29.47;;
5890;SDS011;2971;52.420;7.080;2023-05-10T02:25:08;35.80;;;30.03;;
5890;SDS011;2971;52.420;7.080;2023-05-10T02:27:34;33.57;;;28.67;;
5890;SDS011;2971;52.420;7.080;2023-05-10T02:29:59;36.10;;;29.00;;
5890;SDS011;2971;52.420;7.080;2023-05-10T02:32:26;34.73;;;30.30;;
5890;SDS011;2971;52.420;7.080;2023-05-10T02:34:51;34.63;;;28.67;;
5890;SDS011;2971;52.420;7.080;2023-05-10T02:37:20;36.57;;;29.50;;
5890;SDS011;2971;52.420;7.080;2023-05-10T02:39:47;35.93;;;30.30;;
5890;SDS011;2971;52.420;7.080;2023-05-10T02:42:15;34.97;;;30.23;;
5890;SDS011;2971;52.420;7.080;2023-05-10T02:44:41;35.30;;;28.87;;
5890;SDS011;2971;52.420;7.080;2023-05-10T02:47:07;36.77;;;30.67;;
5890;SDS011;2971;52.420;7.080;2023-05-10T02:49:32;35.23;;;30.13;;
5890;SDS011;2971;52.420;7.080;2023-05-10T02:52:00;35.43;;;29.73;;
5890;SDS011;2971;52.420;7.080;2023-05-10T02:54:29;35.87;;;29.97;;
5890;SDS011;2971;52.420;7.080;2023-05-10T02:56:58;36.67;;;28.93;;
5890;SDS011;2971;52.420;7.080;2023-05-10T02:59:25;37.00;;;30.57;;
5890;SDS011;2971;52.420;7.080;2023-05-10T03:01:51;36.67;;;29.40;;
5890;SDS011;2971;52.420;7.080;2023-05-10T03:04:16;40.10;;;30.50;;
5890;SDS011;2971;52.420;7.080;2023-05-10T03:06:42;38.27;;;28.53;;
5890;SDS011;2971;52.420;7.080;2023-05-10T03:09:07;43.70;;;31.00;;
5890;SDS011;2971;52.420;7.080;2023-05-10T03:19:51;46.67;;;32.13;;
5890;SDS011;2971;52.420;7.080;2023-05-10T03:22:21;46.73;;;31.77;;
5890;SDS011;2971;52.420;7.080;2023-05-10T03:24:50;45.13;;;31.40;;
5890;SDS011;2971;52.420;7.080;2023-05-10T03:27:17;43.07;;;33.07;;
5890;SDS011;2971;52.420;7.080;2023-05-10T03:29:43;43.77;;;31.87;;
5890;SDS011;2971;52.420;7.080;2023-05-10T03:32:09;48.23;;;32.33;;
5890;SDS011;2971;52.420;7.080;2023-05-10T03:34:35;44.10;;;30.77;;
5890;SDS011;2971;52.420;7.080;2023-05-10T03:37:06;46.73;;;31.30;;
5890;SDS011;2971;52.420;7.080;2023-05-10T03:39:32;43.20;;;30.10;;
5890;SDS011;2971;52.420;7.080;2023-05-10T03:41:57;44.80;;;30.43;;
5890;SDS011;2971;52.420;7.080;2023-05-10T03:44:22;45.73;;;30.70;;
5890;SDS011;2971;52.420;7.080;2023-05-10T03:46:48;43.67;;;29.17;;
5890;SDS011;2971;52.420;7.080;2023-05-10T03:49:13;45.50;;;29.43;;
5890;SDS011;2971;52.420;7.080;2023-05-10T03:51:39;45.87;;;30.70;;
5890;SDS011;2971;52.420;7.080;2023-05-10T03:54:04;46.10;;;30.90;;
5890;SDS011;2971;52.420;7.080;2023-05-10T03:56:29;44.07;;;28.70;;
5890;SDS011;2971;52.420;7.080;2023-05-10T03:58:55;46.27;;;28.97;;
5890;SDS011;2971;52.420;7.080;2023-05-10T04:01:20;44.97;;;29.57;;
5890;SDS011;2971;52.420;7.080;2023-05-10T04:03:46;45.27;;;31.40;;
5890;SDS011;2971;52.420;7.080;2023-05-10T04:06:11;42.80;;;29.30;;
5890;SDS011;2971;52.420;7.080;2023-05-10T04:08:36;44.10;;;30.00;;
5890;SDS011;2971;52.420;7.080;2023-05-10T04:11:09;45.43;;;30.77;;
5890;SDS011;2971;52.420;7.080;2023-05-10T04:13:36;49.63;;;32.53;;
5890;SDS011;2971;52.420;7.080;2023-05-10T04:16:01;47.87;;;31.07;;
5890;SDS011;2971;52.420;7.080;2023-05-10T04:18:27;46.23;;;31.33;;
5890;SDS011;2971;52.420;7.080;2023-05-10T04:20:52;48.80;;;31.10;;
5890;SDS011;2971;52.420;7.080;2023-05-10T04:23:18;50.70;;;31.40;;
5890;SDS011;2971;52.420;7.080;2023-05-10T04:25:43;49.47;;;34.23;;
5890;SDS011;2971;52.420;7.080;2023-05-10T04:28:09;48.10;;;31.47;;
5890;SDS011;2971;52.420;7.080;2023-05-10T04:30:34;47.53;;;32.17;;
5890;SDS011;2971;52.420;7.080;2023-05-10T04:33:00;44.43;;;31.47;;
5890;SDS011;2971;52.420;7.080;2023-05-10T04:35:27;48.20;;;31.73;;
5890;SDS011;2971;52.420;7.080;2023-05-10T04:37:53;50.20;;;33.07;;
5890;SDS011;2971;52.420;7.080;2023-05-10T04:40:18;43.27;;;31.10;;
5890;SDS011;2971;52.420;7.080;2023-05-10T04:42:44;51.13;;;33.77;;
5890;SDS011;2971;52.420;7.080;2023-05-10T04:45:10;53.03;;;32.23;;
5890;SDS011;2971;52.420;7.080;2023-05-10T04:47:35;52.43;;;32.83;;
5890;SDS011;2971;52.420;7.080;2023-05-10T04:50:02;57.67;;;34.63;;
5890;SDS011;2971;52.420;7.080;2023-05-10T04:52:28;56.07;;;36.17;;
5890;SDS011;2971;52.420;7.080;2023-05-10T04:54:54;56.23;;;34.23;;
5890;SDS011;2971;52.420;7.080;2023-05-10T04:57:19;52.57;;;33.13;;
5890;SDS011;2971;52.420;7.080;2023-05-10T04:59:44;53.57;;;34.70;;
5890;SDS011;2971;52.420;7.080;2023-05-10T05:02:10;57.00;;;35.93;;
5890;SDS011;2971;52.420;7.080;2023-05-10T05:04:35;57.80;;;35.30;;
5890;SDS011;2971;52.420;7.080;2023-05-10T05:07:00;54.63;;;36.37;;
5890;SDS011;2971;52.420;7.080;2023-05-10T05:09:26;61.97;;;35.60;;
5890;SDS011;2971;52.420;7.080;2023-05-10T05:11:51;58.87;;;35.43;;
5890;SDS011;2971;52.420;7.080;2023-05-10T05:14:17;53.93;;;35.77;;
5890;SDS011;2971;52.420;7.080;2023-05-10T05:16:42;57.97;;;34.00;;
5890;SDS011;2971;52.420;7.080;2023-05-10T05:19:07;67.57;;;37.63;;
5890;SDS011;2971;52.420;7.080;2023-05-10T05:21:33;65.27;;;36.97;;
5890;SDS011;2971;52.420;7.080;2023-05-10T05:23:58;59.70;;;36.97;;
5890;SDS011;2971;52.420;7.080;2023-05-10T05:26:23;65.10;;;38.57;;
5890;SDS011;2971;52.420;7.080;2023-05-10T05:28:49;62.07;;;36.40;;
5890;SDS011;2971;52.420;7.080;2023-05-10T05:31:17;62.47;;;36.90;;
5890;SDS011;2971;52.420;7.080;2023-05-10T05:33:43;67.03;;;38.53;;
5890;SDS011;2971;52.420;7.080;2023-05-10T05:36:08;67.17;;;38.10;;
5890;SDS011;2971;52.420;7.080;2023-05-10T05:38:34;65.10;;;37.13;;
5890;SDS011;2971;52.420;7.080;2023-05-10T05:40:59;61.10;;;37.87;;
5890;SDS011;2971;52.420;7.080;2023-05-10T05:43:25;67.67;;;41.57;;
5890;SDS011;2971;52.420;7.080;2023-05-10T05:45:51;68.77;;;40.50;;
5890;SDS011;2971;52.420;7.080;2023-05-10T05:48:17;71.87;;;41.23;;
5890;SDS011;2971;52.420;7.080;2023-05-10T05:50:43;68.17;;;39.47;;
5890;SDS011;2971;52.420;7.080;2023-05-10T05:53:08;71.77;;;40.80;;
5890;SDS011;2971;52.420;7.080;2023-05-10T05:55:34;73.43;;;42.17;;
5890;SDS011;2971;52.420;7.080;2023-05-10T05:57:59;77.03;;;42.47;;
5890;SDS011;2971;52.420;7.080;2023-05-10T06:00:24;75.90;;;41.97;;
5890;SDS011;2971;52.420;7.080;2023-05-10T06:02:50;75.77;;;40.67;;
5890;SDS011;2971;52.420;7.080;2023-05-10T06:05:16;75.47;;;42.53;;
5890;SDS011;2971;52.420;7.080;2023-05-10T06:07:41;75.97;;;43.07;;
5890;SDS011;2971;52.420;7.080;2023-05-10T06:10:07;78.03;;;41.97;;
5890;SDS011;2971;52.420;7.080;2023-05-10T06:12:33;86.97;;;45.03;;
5890;SDS011;2971;52.420;7.080;2023-05-10T06:14:58;81.53;;;42.73;;
5890;SDS011;2971;52.420;7.080;2023-05-10T06:17:24;86.97;;;45.13;;
5890;SDS011;2971;52.420;7.080;2023-05-10T06:19:50;83.70;;;44.63;;
5890;SDS011;2971;52.420;7.080;2023-05-10T06:22:15;88.33;;;44.67;;
5890;SDS011;2971;52.420;7.080;2023-05-10T06:24:40;89.77;;;46.70;;
5890;SDS011;2971;52.420;7.080;2023-05-10T06:27:06;87.57;;;45.77;;
5890;SDS011;2971;52.420;7.080;2023-05-10T06:29:32;91.60;;;46.83;;
5890;SDS011;2971;52.420;7.080;2023-05-10T06:31:57;86.70;;;48.40;;
5890;SDS011;2971;52.420;7.080;2023-05-10T06:34:23;94.03;;;48.90;;
5890;SDS011;2971;52.420;7.080;2023-05-10T06:36:49;90.33;;;48.47;;
5890;SDS011;2971;52.420;7.080;2023-05-10T06:39:14;90.37;;;47.73;;
5890;SDS011;2971;52.420;7.080;2023-05-10T06:41:40;93.43;;;52.57;;
5890;SDS011;2971;52.420;7.080;2023-05-10T06:44:06;86.73;;;51.20;;
5890;SDS011;2971;52.420;7.080;2023-05-10T06:46:31;104.07;;;52.30;;
5890;SDS011;2971;52.420;7.080;2023-05-10T06:48:57;96.93;;;51.17;;
5890;SDS011;2971;52.420;7.080;2023-05-10T06:51:22;97.50;;;50.43;;
5890;SDS011;2971;52.420;7.080;2023-05-10T06:53:48;94.03;;;49.80;;
5890;SDS011;2971;52.420;7.080;2023-05-10T06:56:13;97.63;;;51.20;;
5890;SDS011;2971;52.420;7.080;2023-05-10T06:58:39;95.40;;;52.17;;
5890;SDS011;2971;52.420;7.080;2023-05-10T07:01:04;91.43;;;51.23;;
5890;SDS011;2971;52.420;7.080;2023-05-10T07:03:30;97.90;;;52.73;;
5890;SDS011;2971;52.420;7.080;2023-05-10T07:06:02;96.40;;;51.67;;
5890;SDS011;2971;52.420;7.080;2023-05-10T07:08:31;97.27;;;52.43;;
5890;SDS011;2971;52.420;7.080;2023-05-10T07:11:02;94.30;;;51.50;;
5890;SDS011;2971;52.420;7.080;2023-05-10T07:13:29;93.13;;;51.47;;
5890;SDS011;2971;52.420;7.080;2023-05-10T07:15:56;94.57;;;50.70;;
5890;SDS011;2971;52.420;7.080;2023-05-10T07:18:21;88.13;;;48.87;;
5890;SDS011;2971;52.420;7.080;2023-05-10T07:20:46;86.57;;;49.27;;
5890;SDS011;2971;52.420;7.080;2023-05-10T07:23:12;86.60;;;48.23;;
5890;SDS011;2971;52.420;7.080;2023-05-10T07:25:37;85.30;;;52.40;;
5890;SDS011;2971;52.420;7.080;2023-05-10T07:28:03;82.03;;;48.47;;
5890;SDS011;2971;52.420;7.080;2023-05-10T07:30:28;88.90;;;49.87;;
5890;SDS011;2971;52.420;7.080;2023-05-10T07:32:53;82.80;;;47.80;;
5890;SDS011;2971;52.420;7.080;2023-05-10T07:35:20;84.40;;;48.23;;
5890;SDS011;2971;52.420;7.080;2023-05-10T07:37:46;84.73;;;49.03;;
5890;SDS011;2971;52.420;7.080;2023-05-10T07:40:11;82.47;;;48.60;;
5890;SDS011;2971;52.420;7.080;2023-05-10T07:42:36;87.17;;;51.77;;
5890;SDS011;2971;52.420;7.080;2023-05-10T07:45:03;78.83;;;48.37;;
5890;SDS011;2971;52.420;7.080;2023-05-10T07:47:29;78.73;;;50.83;;
5890;SDS011;2971;52.420;7.080;2023-05-10T07:49:54;80.90;;;46.60;;
5890;SDS011;2971;52.420;7.080;2023-05-10T07:52:19;75.73;;;50.70;;
5890;SDS011;2971;52.420;7.080;2023-05-10T07:54:45;79.17;;;47.43;;
5890;SDS011;2971;52.420;7.080;2023-05-10T07:57:11;74.17;;;47.10;;
5890;SDS011;2971;52.420;7.080;2023-05-10T07:59:36;81.10;;;47.47;;
5890;SDS011;2971;52.420;7.080;2023-05-10T08:02:01;81.00;;;50.33;;
5890;SDS011;2971;52.420;7.080;2023-05-10T08:04:27;81.40;;;46.57;;
5890;SDS011;2971;52.420;7.080;2023-05-10T08:06:52;82.17;;;48.27;;
5890;SDS011;2971;52.420;7.080;2023-05-10T08:09:17;58.40;;;37.57;;
5890;SDS011;2971;52.420;7.080;2023-05-10T08:11:48;55.70;;;38.40;;
5890;SDS011;2971;52.420;7.080;2023-05-10T08:14:13;61.40;;;38.33;;
5890;SDS011;2971;52.420;7.080;2023-05-10T08:16:39;65.80;;;41.23;;
5890;SDS011;2971;52.420;7.080;2023-05-10T08:19:04;61.90;;;42.43;;
5890;SDS011;2971;52.420;7.080;2023-05-10T08:21:29;70.60;;;43.97;;
5890;SDS011;2971;52.420;7.080;2023-05-10T08:23:56;69.07;;;43.57;;
5890;SDS011;2971;52.420;7.080;2023-05-10T08:26:21;67.90;;;44.37;;
5890;SDS011;2971;52.420;7.080;2023-05-10T08:28:47;68.53;;;44.47;;
5890;SDS011;2971;52.420;7.080;2023-05-10T08:31:12;63.50;;;44.57;;
5890;SDS011;2971;52.420;7.080;2023-05-10T08:33:37;65.13;;;43.83;;
5890;SDS011;2971;52.420;7.080;2023-05-10T08:36:03;60.37;;;42.53;;
5890;SDS011;2971;52.420;7.080;2023-05-10T08:38:28;56.63;;;40.23;;
5890;SDS011;2971;52.420;7.080;2023-05-10T08:40:54;47.17;;;33.50;;
5890;SDS011;2971;52.420;7.080;2023-05-10T08:43:26;49.93;;;35.87;;
5890;SDS011;2971;52.420;7.080;2023-05-10T08:45:53;44.07;;;33.40;;
5890;SDS011;2971;52.420;7.080;2023-05-10T08:48:19;40.03;;;30.60;;
5890;SDS011;2971;52.420;7.080;2023-05-10T08:50:46;34.87;;;27.60;;
5890;SDS011;2971;52.420;7.080;2023-05-10T08:53:12;31.40;;;26.00;;
5890;SDS011;2971;52.420;7.080;2023-05-10T08:55:38;30.57;;;24.50;;
5890;SDS011;2971;52.420;7.080;2023-05-10T08:58:08;31.43;;;23.53;;
5890;SDS011;2971;52.420;7.080;2023-05-10T09:00:34;26.00;;;22.60;;
5890;SDS011;2971;52.420;7.080;2023-05-10T09:03:00;25.97;;;20.27;;
5890;SDS011;2971;52.420;7.080;2023-05-10T09:05:26;27.47;;;22.73;;
5890;SDS011;2971;52.420;7.080;2023-05-10T09:07:51;26.70;;;20.57;;
5890;SDS011;2971;52.420;7.080;2023-05-10T09:10:17;26.80;;;20.90;;
5890;SDS011;2971;52.420;7.080;2023-05-10T09:12:43;23.70;;;19.57;;
5890;SDS011;2971;52.420;7.080;2023-05-10T09:15:10;25.33;;;19.20;;
5890;SDS011;2971;52.420;7.080;2023-05-10T09:17:36;23.50;;;19.53;;
5890;SDS011;2971;52.420;7.080;2023-05-10T09:20:02;22.33;;;18.87;;
5890;SDS011;2971;52.420;7.080;2023-05-10T09:22:32;25.00;;;18.83;;
5890;SDS011;2971;52.420;7.080;2023-05-10T09:27:33;19.27;;;15.77;;
5890;SDS011;2971;52.420;7.080;2023-05-10T09:29:58;19.70;;;16.20;;
5890;SDS011;2971;52.420;7.080;2023-05-10T09:32:44;22.13;;;17.40;;
5890;SDS011;2971;52.420;7.080;2023-05-10T09:35:15;22.93;;;19.07;;
5890;SDS011;2971;52.420;7.080;2023-05-10T09:37:42;25.07;;;19.03;;
5890;SDS011;2971;52.420;7.080;2023-05-10T09:40:13;27.30;;;20.40;;
5890;SDS011;2971;52.420;7.080;2023-05-10T09:42:41;24.50;;;20.33;;
5890;SDS011;2971;52.420;7.080;2023-05-10T09:45:07;27.83;;;19.77;;
5890;SDS011;2971;52.420;7.080;2023-05-10T09:47:36;25.23;;;20.27;;
5890;SDS011;2971;52.420;7.080;2023-05-10T09:50:02;23.07;;;19.73;;
5890;SDS011;2971;52.420;7.080;2023-05-10T09:52:29;21.87;;;18.60;;
5890;SDS011;2971;52.420;7.080;2023-05-10T09:54:55;23.40;;;18.97;;
5890;SDS011;2971;52.420;7.080;2023-05-10T09:57:22;21.73;;;18.00;;
5890;SDS011;2971;52.420;7.080;2023-05-10T09:59:48;22.53;;;17.93;;
5890;SDS011;2971;52.420;7.080;2023-05-10T10:02:14;21.23;;;17.93;;
5890;SDS011;2971;52.420;7.080;2023-05-10T10:04:40;22.03;;;18.10;;
5890;SDS011;2971;52.420;7.080;2023-05-10T10:07:06;19.73;;;16.27;;
5890;SDS011;2971;52.420;7.080;2023-05-10T10:09:32;17.47;;;14.73;;
5890;SDS011;2971;52.420;7.080;2023-05-10T10:12:01;16.77;;;13.20;;
5890;SDS011;2971;52.420;7.080;2023-05-10T10:14:28;17.33;;;13.63;;
5890;SDS011;2971;52.420;7.080;2023-05-10T10:16:54;18.53;;;13.43;;
5890;SDS011;2971;52.420;7.080;2023-05-10T10:19:19;16.33;;;12.63;;
5890;SDS011;2971;52.420;7.080;2023-05-10T10:21:45;17.47;;;14.17;;
5890;SDS011;2971;52.420;7.080;2023-05-10T10:24:11;17.93;;;13.87;;
5890;SDS011;2971;52.420;7.080;2023-05-10T10:26:36;17.60;;;14.07;;
5890;SDS011;2971;52.420;7.080;2023-05-10T10:34:42;14.83;;;13.30;;
5890;SDS011;2971;52.420;7.080;2023-05-10T10:37:08;14.40;;;12.30;;
5890;SDS011;2971;52.420;7.080;2023-05-10T10:39:33;12.83;;;11.13;;
5890;SDS011;2971;52.420;7.080;2023-05-10T10:42:01;12.30;;;10.13;;
5890;SDS011;2971;52.420;7.080;2023-05-10T10:47:06;13.63;;;9.40;;
5890;SDS011;2971;52.420;7.080;2023-05-10T10:52:15;13.67;;;10.60;;
5890;SDS011;2971;52.420;7.080;2023-05-10T10:55:02;10.90;;;8.73;;
5890;SDS011;2971;52.420;7.080;2023-05-10T10:57:28;12.33;;;9.07;;
5890;SDS011;2971;52.420;7.080;2023-05-10T11:10:22;10.80;;;8.70;;
5890;SDS011;2971;52.420;7.080;2023-05-10T11:13:01;9.80;;;8.40;;
5890;SDS011;2971;52.420;7.080;2023-05-10T11:15:30;10.50;;;8.73;;
5890;SDS011;2971;52.420;7.080;2023-05-10T11:20:59;13.37;;;7.77;;
5890;SDS011;2971;52.420;7.080;2023-05-10T11:24:12;11.10;;;8.40;;
5890;SDS011;2971;52.420;7.080;2023-05-10T11:26:22;9.93;;;8.47;;
5890;SDS011;2971;52.420;7.080;2023-05-10T11:28:52;10.47;;;8.43;;
5890;SDS011;2971;52.420;7.080;2023-05-10T11:31:20;9.87;;;7.20;;
5890;SDS011;2971;52.420;7.080;2023-05-10T11:33:56;8.40;;;7.50;;
5890;SDS011;2971;52.420;7.080;2023-05-10T11:36:55;9.30;;;8.10;;
5890;SDS011;2971;52.420;7.080;2023-05-10T11:39:18;11.43;;;7.53;;
5890;SDS011;2971;52.420;7.080;2023-05-10T11:41:46;7.77;;;7.03;;
5890;SDS011;2971;52.420;7.080;2023-05-10T11:44:13;10.60;;;7.47;;
5890;SDS011;2971;52.420;7.080;2023-05-10T11:46:39;10.23;;;8.50;;
5890;SDS011;2971;52.420;7.080;2023-05-10T11:49:04;8.93;;;8.03;;
5890;SDS011;2971;52.420;7.080;2023-05-10T11:51:33;7.27;;;6.40;;
5890;SDS011;2971;52.420;7.080;2023-05-10T11:54:04;7.37;;;6.40;;
5890;SDS011;2971;52.420;7.080;2023-05-10T11:56:32;6.70;;;5.97;;
5890;SDS011;2971;52.420;7.080;2023-05-10T11:58:57;6.93;;;5.40;;
5890;SDS011;2971;52.420;7.080;2023-05-10T12:01:24;7.63;;;5.30;;
5890;SDS011;2971;52.420;7.080;2023-05-10T12:03:50;9.13;;;5.67;;
5890;SDS011;2971;52.420;7.080;2023-05-10T12:06:17;7.23;;;6.20;;
5890;SDS011;2971;52.420;7.080;2023-05-10T12:08:47;8.93;;;6.20;;
5890;SDS011;2971;52.420;7.080;2023-05-10T12:11:18;7.80;;;5.50;;
5890;SDS011;2971;52.420;7.080;2023-05-10T12:13:46;8.27;;;5.80;;
5890;SDS011;2971;52.420;7.080;2023-05-10T12:16:18;8.03;;;6.03;;
5890;SDS011;2971;52.420;7.080;2023-05-10T12:18:45;9.10;;;5.47;;
5890;SDS011;2971;52.420;7.080;2023-05-10T12:21:11;8.30;;;5.97;;
5890;SDS011;2971;52.420;7.080;2023-05-10T12:23:37;9.07;;;6.23;;
5890;SDS011;2971;52.420;7.080;2023-05-10T12:26:03;8.93;;;6.17;;
5890;SDS011;2971;52.420;7.080;2023-05-10T12:28:31;8.03;;;6.00;;
5890;SDS011;2971;52.420;7.080;2023-05-10T12:30:57;8.20;;;6.17;;
5890;SDS011;2971;52.420;7.080;2023-05-10T12:33:24;7.57;;;5.77;;
5890;SDS011;2971;52.420;7.080;2023-05-10T12:35:50;8.47;;;5.90;;
5890;SDS011;2971;52.420;7.080;2023-05-10T12:38:27;10.13;;;5.27;;
5890;SDS011;2971;52.420;7.080;2023-05-10T12:41:09;7.07;;;5.50;;
5890;SDS011;2971;52.420;7.080;2023-05-10T12:43:36;6.07;;;4.80;;
5890;SDS011;2971;52.420;7.080;2023-05-10T12:46:14;5.93;;;5.03;;
5890;SDS011;2971;52.420;7.080;2023-05-10T12:48:41;5.27;;;4.67;;
5890;SDS011;2971;52.420;7.080;2023-05-10T12:51:07;6.10;;;4.73;;
5890;SDS011;2971;52.420;7.080;2023-05-10T12:53:42;7.37;;;4.70;;
5890;SDS011;2971;52.420;7.080;2023-05-10T12:56:08;5.50;;;4.93;;
5890;SDS011;2971;52.420;7.080;2023-05-10T12:58:33;9.83;;;4.67;;
5890;SDS011;2971;52.420;7.080;2023-05-10T13:00:59;4.77;;;4.27;;
5890;SDS011;2971;52.420;7.080;2023-05-10T13:03:25;6.37;;;4.50;;
5890;SDS011;2971;52.420;7.080;2023-05-10T13:05:50;5.50;;;4.67;;
5890;SDS011;2971;52.420;7.080;2023-05-10T13:08:16;5.87;;;4.40;;
5890;SDS011;2971;52.420;7.080;2023-05-10T13:10:41;7.27;;;4.63;;
5890;SDS011;2971;52.420;7.080;2023-05-10T13:13:07;5.33;;;4.07;;
5890;SDS011;2971;52.420;7.080;2023-05-10T13:15:33;4.57;;;4.00;;
5890;SDS011;2971;52.420;7.080;2023-05-10T13:17:59;6.07;;;4.40;;
5890;SDS011;2971;52.420;7.080;2023-05-10T13:20:25;6.47;;;5.00;;
5890;SDS011;2971;52.420;7.080;2023-05-10T13:22:50;4.93;;;3.87;;
5890;SDS011;2971;52.420;7.080;2023-05-10T13:25:16;6.73;;;4.77;;
5890;SDS011;2971;52.420;7.080;2023-05-10T13:27:41;11.50;;;5.17;;
5890;SDS011;2971;52.420;7.080;2023-05-10T13:30:07;6.13;;;4.57;;
5890;SDS011;2971;52.420;7.080;2023-05-10T13:32:33;8.47;;;4.73;;
5890;SDS011;2971;52.420;7.080;2023-05-10T13:34:59;5.80;;;4.53;;
5890;SDS011;2971;52.420;7.080;2023-05-10T13:37:24;5.77;;;4.63;;
5890;SDS011;2971;52.420;7.080;2023-05-10T13:39:50;6.77;;;4.73;;
5890;SDS011;2971;52.420;7.080;2023-05-10T13:42:17;5.63;;;4.33;;
5890;SDS011;2971;52.420;7.080;2023-05-10T13:44:43;5.87;;;4.90;;
5890;SDS011;2971;52.420;7.080;2023-05-10T13:47:08;7.27;;;4.70;;
5890;SDS011;2971;52.420;7.080;2023-05-10T13:49:34;5.97;;;4.63;;
5890;SDS011;2971;52.420;7.080;2023-05-10T13:51:59;6.57;;;4.93;;
5890;SDS011;2971;52.420;7.080;2023-05-10T13:54:31;7.00;;;5.17;;
5890;SDS011;2971;52.420;7.080;2023-05-10T13:57:00;5.50;;;4.83;;
5890;SDS011;2971;52.420;7.080;2023-05-10T13:59:26;7.70;;;5.30;;
5890;SDS011;2971;52.420;7.080;2023-05-10T14:01:51;8.00;;;5.60;;
5890;SDS011;2971;52.420;7.080;2023-05-10T14:04:17;7.70;;;5.40;;
5890;SDS011;2971;52.420;7.080;2023-05-10T14:06:42;6.93;;;5.43;;
5890;SDS011;2971;52.420;7.080;2023-05-10T14:09:08;6.13;;;5.20;;
5890;SDS011;2971;52.420;7.080;2023-05-10T14:11:33;5.17;;;4.67;;
5890;SDS011;2971;52.420;7.080;2023-05-10T14:13:59;5.97;;;4.90;;
5890;SDS011;2971;52.420;7.080;2023-05-10T14:16:24;6.93;;;4.90;;
5890;SDS011;2971;52.420;7.080;2023-05-10T14:18:51;5.87;;;4.90;;
5890;SDS011;2971;52.420;7.080;2023-05-10T14:21:16;6.73;;;5.17;;
5890;SDS011;2971;52.420;7.080;2023-05-10T14:23:42;7.73;;;5.33;;
5890;SDS011;2971;52.420;7.080;2023-05-10T14:26:07;7.43;;;5.30;;
5890;SDS011;2971;52.420;7.080;2023-05-10T14:28:33;7.73;;;5.97;;
5890;SDS011;2971;52.420;7.080;2023-05-10T14:30:59;8.03;;;6.03;;
5890;SDS011;2971;52.420;7.080;2023-05-10T14:33:24;6.90;;;5.63;;
5890;SDS011;2971;52.420;7.080;2023-05-10T14:35:50;7.33;;;6.03;;
5890;SDS011;2971;52.420;7.080;2023-05-10T14:38:16;8.93;;;6.60;;
5890;SDS011;2971;52.420;7.080;2023-05-10T14:40:41;7.73;;;6.80;;
5890;SDS011;2971;52.420;7.080;2023-05-10T14:43:07;7.83;;;6.70;;
5890;SDS011;2971;52.420;7.080;2023-05-10T14:45:33;8.27;;;7.30;;
5890;SDS011;2971;52.420;7.080;2023-05-10T14:47:58;7.23;;;6.53;;
5890;SDS011;2971;52.420;7.080;2023-05-10T14:50:24;7.60;;;6.90;;
5890;SDS011;2971;52.420;7.080;2023-05-10T14:52:49;7.83;;;6.87;;
5890;SDS011;2971;52.420;7.080;2023-05-10T14:55:15;7.23;;;6.57;;
5890;SDS011;2971;52.420;7.080;2023-05-10T14:57:40;7.73;;;6.47;;
5890;SDS011;2971;52.420;7.080;2023-05-10T15:00:06;7.37;;;6.50;;
5890;SDS011;2971;52.420;7.080;2023-05-10T15:02:32;8.20;;;6.70;;
5890;SDS011;2971;52.420;7.080;2023-05-10T15:04:57;7.73;;;6.90;;
5890;SDS011;2971;52.420;7.080;2023-05-10T15:07:23;8.97;;;7.33;;
5890;SDS011;2971;52.420;7.080;2023-05-10T15:09:49;7.67;;;6.77;;
5890;SDS011;2971;52.420;7.080;2023-05-10T15:12:16;7.67;;;6.87;;
5890;SDS011;2971;52.420;7.080;2023-05-10T15:14:42;8.43;;;6.93;;
5890;SDS011;2971;52.420;7.080;2023-05-10T15:17:07;7.33;;;5.53;;
5890;SDS011;2971;52.420;7.080;2023-05-10T15:19:33;10.93;;;6.07;;
5890;SDS011;2971;52.420;7.080;2023-05-10T15:21:58;7.77;;;5.07;;
5890;SDS011;2971;52.420;7.080;2023-05-10T15:24:24;6.70;;;4.87;;
5890;SDS011;2971;52.420;7.080;2023-05-10T15:26:50;8.40;;;5.23;;
5890;SDS011;2971;52.420;7.080;2023-05-10T15:29:15;8.00;;;5.83;;
5890;SDS011;2971;52.420;7.080;2023-05-10T15:31:48;8.73;;;5.63;;
5890;SDS011;2971;52.420;7.080;2023-05-10T15:34:15;6.80;;;4.73;;
5890;SDS011;2971;52.420;7.080;2023-05-10T15:36:40;5.43;;;4.93;;
5890;SDS011;2971;52.420;7.080;2023-05-10T15:39:06;7.30;;;5.40;;